Time;durP1;ratioP1;P1;durP2;ratioP2;P2;SDS_P1;SDS_P2;PMS_P1;PMS_P2;Temp;Humidity;BMP_temperature;BMP_pressure;BME280_temperature;BME280_humidity;BME280_pressure;Samples;Min_cycle;Max_cycle;Signal;HPM_P1;HPM_P2
2023/12/25 00:02:10;;;;;;;36.78;17.42;;;;;;;7.94;78.86;99673.34;5133792;27;20084;-66
2023/12/25 00:04:36;;;;;;;33.17;18.20;;;;;;;7.94;77.89;99668.09;5144230;27;20114;-66
2023/12/25 00:07:01;;;;;;;29.27;17.45;;;;;;;8.03;77.40;99682.19;5143920;27;20042;-66
2023/12/25 00:09:27;;;;;;;26.52;17.95;;;;;;;8.10;78.04;99685.06;5135203;27;20628;-64
2023/12/25 00:11:52;;;;;;;27.10;16.27;;;;;;;8.19;78.04;99673.63;5143839;27;20053;-64
2023/12/25 00:14:18;;;;;;;29.85;16.88;;;;;;;8.22;76.00;99666.25;5139332;27;20061;-66
2023/12/25 00:16:43;;;;;;;33.83;20.35;;;;;;;8.29;76.04;99669.13;5143967;27;20041;-63
2023/12/25 00:19:09;;;;;;;30.58;21.77;;;;;;;8.37;76.17;99674.53;5138718;27;20031;-64
2023/12/25 00:21:35;;;;;;;26.35;16.55;;;;;;;8.40;76.48;99681.34;5140398;27;20063;-64
2023/12/25 00:24:01;;;;;;;26.63;17.35;;;;;;;8.47;76.55;99671.84;5141244;27;20042;-64
2023/12/25 00:26:26;;;;;;;28.05;16.27;;;;;;;8.60;76.00;99677.56;5132613;27;20298;-63
2023/12/25 00:28:52;;;;;;;29.10;17.95;;;;;;;8.66;75.59;99668.22;5140811;27;20038;-64
2023/12/25 00:31:17;;;;;;;26.33;17.73;;;;;;;8.59;76.07;99670.63;5139459;27;20094;-63
2023/12/25 00:33:43;;;;;;;29.80;16.65;;;;;;;8.73;75.58;99662.19;5140789;27;20094;-66
2023/12/25 00:36:10;;;;;;;30.95;16.42;;;;;;;8.80;75.20;99655.31;5131520;27;20395;-66
2023/12/25 00:38:36;;;;;;;29.08;17.83;;;;;;;8.74;74.70;99658.56;5140400;27;20286;-66
2023/12/25 00:41:02;;;;;;;31.35;17.67;;;;;;;8.75;74.27;99654.94;5137232;27;20043;-66
2023/12/25 00:43:27;;;;;;;30.10;17.83;;;;;;;8.73;74.23;99651.63;5140495;27;20027;-64
2023/12/25 00:45:53;;;;;;;27.98;16.45;;;;;;;8.75;73.28;99662.03;5132160;27;20044;-66
2023/12/25 00:48:18;;;;;;;40.83;19.55;;;;;;;8.72;72.46;99664.97;5138497;27;20214;-63
2023/12/25 00:50:44;;;;;;;53.15;24.58;;;;;;;8.65;71.69;99675.31;5135911;27;20054;-66
2023/12/25 00:53:09;;;;;;;53.40;23.17;;;;;;;8.67;71.67;99672.50;5139925;27;20030;-66
2023/12/25 00:55:35;;;;;;;39.97;19.52;;;;;;;8.64;73.04;99673.66;5140273;27;20038;-64
2023/12/25 00:58:00;;;;;;;52.47;22.40;;;;;;;8.60;73.69;99674.94;5140335;27;20092;-64
2023/12/25 01:00:26;;;;;;;61.22;26.17;;;;;;;8.61;72.36;99674.78;5141783;27;20220;-65
2023/12/25 01:02:51;;;;;;;38.20;20.02;;;;;;;8.66;72.77;99670.84;5139583;27;20054;-67
2023/12/25 01:05:17;;;;;;;29.48;18.52;;;;;;;8.69;72.98;99660.81;5141044;27;20038;-65
2023/12/25 01:07:43;;;;;;;32.65;17.48;;;;;;;8.59;74.22;99666.19;5137191;27;20034;-66
2023/12/25 01:10:09;;;;;;;31.27;18.90;;;;;;;8.60;74.58;99672.28;5141141;27;20030;-65
2023/12/25 01:12:34;;;;;;;28.85;18.92;;;;;;;8.64;74.26;99653.34;5131158;27;20314;-66
2023/12/25 01:15:00;;;;;;;35.30;19.20;;;;;;;8.58;74.49;99664.53;5140201;27;20106;-66
2023/12/25 01:17:25;;;;;;;38.50;20.38;;;;;;;8.56;73.15;99658.56;5135885;27;20298;-64
2023/12/25 01:19:51;;;;;;;36.13;20.00;;;;;;;8.37;73.64;99660.53;5140260;27;20027;-64
2023/12/25 01:22:17;;;;;;;38.05;21.00;;;;;;;8.02;75.24;99649.72;5140149;27;20119;-65
2023/12/25 01:24:42;;;;;;;34.38;21.65;;;;;;;7.94;75.99;99639.09;5140729;27;20031;-65
2023/12/25 01:27:08;;;;;;;42.85;22.20;;;;;;;7.90;76.68;99635.09;5136436;27;20492;-66
2023/12/25 01:29:34;;;;;;;43.42;22.55;;;;;;;7.88;77.67;99628.28;5138877;27;20039;-65
2023/12/25 01:31:59;;;;;;;39.72;22.23;;;;;;;7.87;77.49;99624.84;5140331;27;20352;-66
2023/12/25 01:34:25;;;;;;;36.67;23.20;;;;;;;8.07;77.23;99620.25;5138936;27;20034;-65
2023/12/25 01:36:50;;;;;;;36.85;20.38;;;;;;;8.21;76.41;99627.66;5139965;27;20031;-66
2023/12/25 01:39:16;;;;;;;41.28;22.38;;;;;;;8.26;76.54;99633.31;5137976;27;20110;-65
2023/12/25 01:41:42;;;;;;;37.38;21.95;;;;;;;8.36;75.67;99635.13;5140306;27;20046;-63
2023/12/25 01:44:07;;;;;;;34.40;20.85;;;;;;;8.26;74.55;99635.97;5138312;27;20031;-65
2023/12/25 01:46:33;;;;;;;35.70;20.75;;;;;;;8.27;74.55;99642.88;5138941;27;20224;-65
2023/12/25 01:48:58;;;;;;;35.40;20.13;;;;;;;8.15;73.82;99630.91;5138031;27;20352;-64
2023/12/25 01:51:24;;;;;;;33.30;19.77;;;;;;;7.93;72.07;99642.69;5139084;27;20035;-66
2023/12/25 01:53:49;;;;;;;32.90;19.25;;;;;;;7.71;73.36;99639.63;5134699;27;20038;-64
2023/12/25 01:56:16;;;;;;;34.80;19.13;;;;;;;7.56;73.60;99631.38;5138908;27;20039;-64
2023/12/25 01:58:41;;;;;;;29.83;17.08;;;;;;;7.20;71.83;99643.53;5132751;27;20031;-64
2023/12/25 02:01:07;;;;;;;28.52;15.77;;;;;;;6.84;74.04;99638.06;5134737;27;20343;-64
2023/12/25 02:03:33;;;;;;;27.27;16.30;;;;;;;7.04;73.76;99628.34;5138732;27;20042;-63
2023/12/25 02:06:00;;;;;;;34.03;18.67;;;;;;;7.15;74.78;99625.53;5138361;27;20039;-64
2023/12/25 02:08:27;;;;;;;28.85;16.10;;;;;;;7.07;74.76;99619.31;5138319;27;20027;-64
2023/12/25 02:10:53;;;;;;;27.63;16.15;;;;;;;7.17;75.28;99609.59;5138097;27;20070;-64
2023/12/25 02:13:18;;;;;;;31.73;17.13;;;;;;;7.32;75.35;99610.81;5140080;27;20061;-65
2023/12/25 02:15:44;;;;;;;34.42;17.80;;;;;;;7.29;76.55;99611.94;5138041;27;20035;-63
2023/12/25 02:18:11;;;;;;;33.42;18.30;;;;;;;7.25;77.30;99620.22;5138875;27;20329;-66
2023/12/25 02:20:37;;;;;;;27.70;17.00;;;;;;;7.09;78.56;99622.63;5135683;27;20039;-64
2023/12/25 02:23:06;;;;;;;42.03;23.20;;;;;;;7.28;78.30;99627.84;5138562;27;20079;-64
2023/12/25 02:25:34;;;;;;;30.60;18.73;;;;;;;7.41;78.36;99628.38;5138049;27;20059;-64
2023/12/25 02:28:01;;;;;;;31.88;17.70;;;;;;;7.58;77.51;99618.88;5119748;27;20333;-64
2023/12/25 02:30:27;;;;;;;23.67;14.77;;;;;;;7.41;75.50;99617.03;5134227;27;20209;-64
2023/12/25 02:32:52;;;;;;;35.67;21.48;;;;;;;7.59;75.97;99623.19;5138325;27;20069;-63
2023/12/25 02:35:18;;;;;;;35.13;20.63;;;;;;;7.66;77.11;99625.09;5119533;27;20039;-65
2023/12/25 02:37:44;;;;;;;25.75;16.40;;;;;;;7.61;75.13;99624.69;5138454;27;20217;-65
2023/12/25 02:40:09;;;;;;;33.85;19.23;;;;;;;7.65;73.95;99625.22;5133798;27;20126;-64
2023/12/25 02:42:35;;;;;;;23.65;14.05;;;;;;;7.30;73.56;99621.50;5136019;27;20129;-64
2023/12/25 02:45:00;;;;;;;27.73;15.23;;;;;;;7.40;73.73;99628.53;5137538;27;20043;-66
2023/12/25 02:47:26;;;;;;;62.03;26.95;;;;;;;7.36;74.49;99630.63;5137007;27;20046;-63
2023/12/25 02:49:52;;;;;;;148.60;53.33;;;;;;;7.48;75.28;99628.63;5139450;27;20031;-64
2023/12/25 02:52:17;;;;;;;58.03;28.73;;;;;;;7.55;75.56;99621.81;5137615;27;20397;-66
2023/12/25 02:54:43;;;;;;;56.05;24.77;;;;;;;7.64;75.42;99629.66;5128437;27;20238;-65
2023/12/25 02:57:08;;;;;;;43.88;21.65;;;;;;;7.68;74.21;99631.03;5131201;28;20053;-65
2023/12/25 02:59:34;;;;;;;41.17;19.40;;;;;;;7.72;74.18;99631.56;5138458;27;20041;-64
2023/12/25 03:01:59;;;;;;;51.75;24.20;;;;;;;7.78;73.61;99635.44;5137842;27;20095;-66
2023/12/25 03:04:25;;;;;;;59.70;26.48;;;;;;;7.76;73.83;99635.56;5137012;27;20035;-64
2023/12/25 03:06:50;;;;;;;48.33;24.55;;;;;;;7.79;74.24;99635.28;5132568;27;20073;-65
2023/12/25 03:09:16;;;;;;;37.28;19.88;;;;;;;7.74;74.20;99627.00;5129233;27;20035;-63
2023/12/25 03:11:42;;;;;;;29.27;18.75;;;;;;;7.71;74.46;99627.28;5138096;27;20317;-66
2023/12/25 03:14:07;;;;;;;31.75;18.45;;;;;;;7.69;74.78;99619.53;5132350;27;20027;-65
2023/12/25 03:16:33;;;;;;;39.58;21.52;;;;;;;7.63;74.49;99625.38;5137840;27;20048;-66
2023/12/25 03:18:58;;;;;;;36.13;19.88;;;;;;;7.66;75.09;99625.09;5134653;27;20035;-65
2023/12/25 03:21:23;;;;;;;37.42;23.17;;;;;;;7.50;75.35;99624.88;5136961;27;20035;-66
2023/12/25 03:23:49;;;;;;;49.58;24.70;;;;;;;7.43;76.10;99623.81;5128873;27;20034;-63
2023/12/25 03:26:14;;;;;;;41.78;21.77;;;;;;;7.33;76.86;99626.47;5136324;27;20076;-65
2023/12/25 03:28:40;;;;;;;43.70;22.10;;;;;;;7.39;76.00;99629.50;5131884;27;20424;-66
2023/12/25 03:31:07;;;;;;;44.63;23.52;;;;;;;7.38;76.53;99625.22;5137430;27;20122;-63
2023/12/25 03:33:33;;;;;;;39.45;22.67;;;;;;;7.53;76.40;99627.22;5133419;27;20067;-63
2023/12/25 03:35:58;;;;;;;42.30;24.38;;;;;;;7.52;75.84;99622.09;5136573;27;20218;-65
2023/12/25 03:38:24;;;;;;;38.35;23.95;;;;;;;7.49;75.82;99622.38;5136790;27;20066;-66
2023/12/25 03:40:50;;;;;;;37.42;22.35;;;;;;;7.51;75.83;99621.28;5136177;27;20254;-65
2023/12/25 03:43:15;;;;;;;41.30;24.77;;;;;;;7.28;76.69;99630.47;5130860;27;20059;-65
2023/12/25 03:45:41;;;;;;;37.95;23.13;;;;;;;7.07;76.86;99612.25;5138594;27;20039;-66
2023/12/25 03:48:06;;;;;;;34.03;22.70;;;;;;;7.04;77.10;99613.38;5136663;27;20038;-63
2023/12/25 03:50:32;;;;;;;36.33;22.65;;;;;;;7.02;77.57;99604.78;5138153;27;20039;-63
2023/12/25 03:52:57;;;;;;;38.13;22.92;;;;;;;7.13;77.56;99611.69;5138105;27;20032;-64
2023/12/25 03:55:23;;;;;;;37.00;20.42;;;;;;;7.16;78.16;99618.47;5142619;27;20079;-64
2023/12/25 03:57:48;;;;;;;39.22;21.75;;;;;;;7.27;77.32;99626.19;5135334;27;20099;-64
2023/12/25 04:00:14;;;;;;;44.28;21.05;;;;;;;7.14;74.10;99638.84;5141278;27;20039;-65
2023/12/25 04:02:40;;;;;;;36.78;19.67;;;;;;;6.28;73.47;99646.66;5139147;27;20388;-65
2023/12/25 04:05:06;;;;;;;32.70;19.77;;;;;;;5.25;79.92;99664.41;5141088;27;20051;-65
2023/12/25 04:07:32;;;;;;;29.75;18.52;;;;;;;5.10;79.96;99658.63;5133935;27;20050;-65
2023/12/25 04:09:58;;;;;;;26.73;16.20;;;;;;;5.17;81.28;99665.97;5140115;27;20333;-63
2023/12/25 04:12:24;;;;;;;25.00;14.38;;;;;;;5.35;81.31;99659.19;5140956;27;20311;-63
2023/12/25 04:14:49;;;;;;;25.92;14.48;;;;;;;5.35;80.63;99664.44;5141595;27;20183;-63
2023/12/25 04:17:15;;;;;;;29.17;16.42;;;;;;;5.47;80.41;99662.56;5140762;27;20031;-63
2023/12/25 04:19:40;;;;;;;28.73;17.23;;;;;;;5.51;81.10;99654.28;5132654;27;20072;-64
2023/12/25 04:22:06;;;;;;;32.08;19.15;;;;;;;5.73;82.11;99654.09;5141301;27;20102;-65
2023/12/25 04:24:31;;;;;;;34.42;17.67;;;;;;;5.95;81.13;99653.09;5136614;27;20336;-66
2023/12/25 04:26:57;;;;;;;29.55;16.77;;;;;;;5.96;81.46;99640.78;5141622;27;20041;-66
2023/12/25 04:29:22;;;;;;;28.58;15.40;;;;;;;6.07;81.69;99635.41;5140264;27;20031;-63
2023/12/25 04:31:48;;;;;;;44.50;20.63;;;;;;;6.11;81.62;99644.69;5141542;27;20038;-63
2023/12/25 04:34:14;;;;;;;35.25;18.77;;;;;;;6.35;81.66;99634.63;5139961;27;20035;-63
2023/12/25 04:36:39;;;;;;;28.20;17.63;;;;;;;6.38;80.56;99637.00;5140905;27;20034;-65
2023/12/25 04:39:05;;;;;;;27.33;15.40;;;;;;;6.47;79.84;99653.75;5137811;27;20345;-66
2023/12/25 04:41:31;;;;;;;30.15;19.83;;;;;;;6.47;79.98;99643.22;5140396;27;20035;-65
2023/12/25 04:43:56;;;;;;;39.70;27.23;;;;;;;6.51;80.12;99649.03;5134326;27;20039;-64
2023/12/25 04:46:22;;;;;;;40.95;29.23;;;;;;;6.54;80.29;99654.03;5138544;27;20048;-66
2023/12/25 04:48:48;;;;;;;32.50;24.50;;;;;;;6.65;79.20;99654.72;5137482;27;20114;-63
2023/12/25 04:51:13;;;;;;;27.00;18.42;;;;;;;6.58;75.50;99658.03;5138990;27;20356;-66
2023/12/25 04:53:39;;;;;;;23.20;14.98;;;;;;;6.33;74.15;99662.03;5139991;27;20262;-66
2023/12/25 04:56:05;;;;;;;30.55;18.58;;;;;;;6.35;75.49;99653.03;5139332;27;20042;-63
2023/12/25 04:58:30;;;;;;;27.50;17.23;;;;;;;6.49;76.01;99656.22;5139612;27;20069;-66
2023/12/25 05:00:56;;;;;;;51.75;27.98;;;;;;;6.35;77.55;99662.72;5136727;27;20106;-64
2023/12/25 05:03:23;;;;;;;35.85;24.23;;;;;;;6.49;77.81;99658.88;5138527;27;20134;-66
2023/12/25 05:05:49;;;;;;;35.38;24.25;;;;;;;6.67;76.98;99649.31;5139434;27;20078;-66
2023/12/25 05:08:15;;;;;;;34.35;23.00;;;;;;;6.62;76.65;99654.16;5120721;27;20329;-64
2023/12/25 05:10:41;;;;;;;29.35;18.65;;;;;;;6.47;76.11;99656.38;5140103;27;20035;-66
2023/12/25 05:13:07;;;;;;;27.23;16.35;;;;;;;6.38;72.62;99663.28;5137879;27;20050;-64
2023/12/25 05:15:33;;;;;;;25.35;16.27;;;;;;;6.23;70.52;99675.13;5139479;27;20323;-66
2023/12/25 05:17:58;;;;;;;29.50;16.88;;;;;;;6.07;73.41;99672.22;5138001;27;20378;-64
2023/12/25 05:20:24;;;;;;;34.65;19.40;;;;;;;6.04;75.69;99656.69;5140106;27;20102;-66
2023/12/25 05:22:49;;;;;;;35.53;18.77;;;;;;;6.00;76.43;99658.78;5138326;27;20054;-63
2023/12/25 05:25:15;;;;;;;29.77;18.10;;;;;;;6.11;76.41;99644.69;5139811;27;20034;-66
2023/12/25 05:27:40;;;;;;;28.00;18.25;;;;;;;6.26;76.49;99656.50;5138989;27;20123;-66
2023/12/25 05:30:07;;;;;;;27.52;18.50;;;;;;;6.24;75.79;99662.81;5139426;27;20050;-66
2023/12/25 05:32:32;;;;;;;35.03;19.50;;;;;;;6.23;76.60;99666.44;5138414;27;20101;-65
2023/12/25 05:34:58;;;;;;;27.02;14.98;;;;;;;6.14;76.33;99675.94;5138041;27;20320;-64
2023/12/25 05:37:23;;;;;;;19.80;11.40;;;;;;;5.82;77.32;99670.03;5136858;27;20046;-64
2023/12/25 05:39:49;;;;;;;17.88;10.90;;;;;;;5.75;79.45;99680.25;5137563;27;20409;-65
2023/12/25 05:42:14;;;;;;;26.80;14.57;;;;;;;5.90;79.74;99678.94;5138501;27;20329;-63
2023/12/25 05:44:40;;;;;;;114.35;49.50;;;;;;;5.85;79.98;99667.97;5138741;27;20058;-66
2023/12/25 05:47:06;;;;;;;43.10;19.90;;;;;;;6.00;79.82;99663.19;5138980;27;20237;-66
2023/12/25 05:49:31;;;;;;;52.65;40.40;;;;;;;5.93;80.05;99664.69;5135990;27;20236;-66
2023/12/25 05:51:57;;;;;;;35.13;27.92;;;;;;;6.01;80.01;99673.56;5138770;27;20241;-66
2023/12/25 05:54:23;;;;;;;19.63;13.05;;;;;;;6.18;78.99;99663.38;5138625;27;20091;-64
2023/12/25 05:56:48;;;;;;;37.92;21.48;;;;;;;6.10;78.61;99658.78;5140016;27;20050;-65
2023/12/25 05:59:14;;;;;;;34.65;21.83;;;;;;;6.14;79.41;99660.19;5137422;27;20031;-65
2023/12/25 06:01:40;;;;;;;32.80;19.70;;;;;;;6.13;79.16;99660.31;5138537;27;20031;-66
2023/12/25 06:04:05;;;;;;;29.75;17.67;;;;;;;5.95;81.36;99666.22;5138530;27;20110;-66
2023/12/25 06:06:31;;;;;;;24.60;14.65;;;;;;;6.02;81.60;99664.72;5138033;27;20031;-66
2023/12/25 06:08:56;;;;;;;33.00;17.80;;;;;;;6.03;82.59;99661.13;5137913;27;20316;-64
2023/12/25 06:11:21;;;;;;;28.40;17.08;;;;;;;6.09;83.45;99649.25;5137623;27;20038;-63
2023/12/25 06:13:47;;;;;;;22.92;12.00;;;;;;;6.19;83.79;99636.94;5137987;27;20035;-64
2023/12/25 06:16:13;;;;;;;20.30;14.35;;;;;;;6.27;83.96;99615.25;5135749;27;20036;-64
2023/12/25 06:18:38;;;;;;;20.52;13.00;;;;;;;6.46;84.12;99619.69;5137747;27;20035;-64
2023/12/25 06:21:04;;;;;;;19.33;13.68;;;;;;;6.63;84.03;99618.97;5136896;27;20035;-65
2023/12/25 06:23:29;;;;;;;21.75;12.98;;;;;;;6.85;82.66;99638.91;5138114;27;20031;-64
2023/12/25 06:25:55;;;;;;;27.90;16.00;;;;;;;7.00;82.17;99651.47;5136664;27;20072;-63
2023/12/25 06:28:20;;;;;;;22.77;15.52;;;;;;;6.98;82.84;99655.22;5137974;27;20035;-64
2023/12/25 06:30:45;;;;;;;31.48;19.17;;;;;;;7.09;83.10;99657.69;5136707;27;20061;-64
2023/12/25 06:33:11;;;;;;;41.30;24.98;;;;;;;7.31;82.48;99662.66;5134833;27;20042;-65
2023/12/25 06:35:36;;;;;;;28.92;17.70;;;;;;;7.51;80.77;99671.34;5137898;27;20027;-66
2023/12/25 06:38:02;;;;;;;26.42;14.38;;;;;;;7.43;81.00;99651.94;5136740;27;20043;-64
2023/12/25 06:40:27;;;;;;;28.83;15.57;;;;;;;7.40;80.47;99671.50;5137945;27;20360;-66
2023/12/25 06:42:53;;;;;;;30.42;18.05;;;;;;;7.60;80.23;99672.28;5137705;27;20039;-66
2023/12/25 06:45:18;;;;;;;23.48;16.25;;;;;;;7.74;79.81;99687.59;5137861;27;20023;-64
2023/12/25 06:47:44;;;;;;;31.50;17.77;;;;;;;7.85;80.14;99679.50;5137870;27;20324;-64
2023/12/25 06:50:11;;;;;;;31.50;19.23;;;;;;;7.90;79.85;99687.81;5136874;27;20054;-64
2023/12/25 06:52:40;;;;;;;27.85;17.42;;;;;;;7.61;82.38;99674.75;5136043;27;20312;-66
2023/12/25 06:55:06;;;;;;;29.73;17.30;;;;;;;7.30;81.99;99668.06;5137008;27;20045;-63
2023/12/25 06:57:31;;;;;;;30.42;17.65;;;;;;;7.43;80.76;99670.38;5136874;27;20102;-64
2023/12/25 06:59:57;;;;;;;26.27;16.30;;;;;;;7.61;79.70;99660.75;5134757;27;20232;-64
2023/12/25 07:02:23;;;;;;;31.63;18.42;;;;;;;7.64;79.53;99674.47;5138350;27;20080;-64
2023/12/25 07:04:48;;;;;;;30.98;19.45;;;;;;;7.87;78.65;99671.47;5128560;27;20027;-64
2023/12/25 07:07:14;;;;;;;36.42;21.10;;;;;;;7.98;77.89;99687.91;5138236;27;20039;-64
2023/12/25 07:09:42;;;;;;;26.75;16.50;;;;;;;8.08;78.85;99695.75;5132490;27;20106;-66
2023/12/25 07:12:08;;;;;;;25.65;15.15;;;;;;;8.10;80.64;99687.72;5138769;27;20046;-66
2023/12/25 07:14:33;;;;;;;24.02;14.60;;;;;;;8.25;80.73;99705.53;5137584;27;20336;-65
2023/12/25 07:17:00;;;;;;;50.38;29.33;;;;;;;8.27;81.97;99708.00;5138549;27;20039;-65
2023/12/25 07:19:25;;;;;;;56.40;33.05;;;;;;;7.98;80.32;99701.09;5137825;27;20038;-65
2023/12/25 07:21:51;;;;;;;55.50;32.55;;;;;;;7.95;81.18;99716.38;5138779;27;20086;-66
2023/12/25 07:24:16;;;;;;;55.08;33.20;;;;;;;7.97;82.58;99714.41;5136721;27;20273;-64
2023/12/25 07:26:42;;;;;;;56.95;34.58;;;;;;;8.08;82.30;99708.13;5143696;27;20030;-63
2023/12/25 07:29:07;;;;;;;52.08;31.60;;;;;;;8.24;82.71;99719.69;5160173;27;20088;-64
2023/12/25 07:31:33;;;;;;;57.25;31.95;;;;;;;8.46;82.04;99715.88;5141992;27;20041;-63
2023/12/25 07:33:59;;;;;;;102.13;45.45;;;;;;;8.63;80.98;99714.22;5143460;27;20214;-66
2023/12/25 07:36:24;;;;;;;65.85;36.83;;;;;;;8.85;79.53;99720.84;5141975;27;20291;-63
2023/12/25 07:38:50;;;;;;;59.97;33.92;;;;;;;9.05;79.16;99726.81;5142536;27;20372;-64
2023/12/25 07:41:15;;;;;;;46.85;29.20;;;;;;;9.25;77.88;99723.81;5140631;27;20043;-66
2023/12/25 07:43:41;;;;;;;46.17;28.92;;;;;;;9.51;76.81;99721.22;5141703;27;20042;-64
2023/12/25 07:46:08;;;;;;;55.75;32.47;;;;;;;9.71;76.63;99715.72;5136125;27;20058;-64
2023/12/25 07:48:34;;;;;;;66.70;36.30;;;;;;;9.87;76.28;99710.50;5141330;27;20042;-66
2023/12/25 07:51:00;;;;;;;53.72;33.67;;;;;;;10.00;75.92;99707.44;5140487;27;20042;-64
2023/12/25 07:53:25;;;;;;;40.33;22.33;;;;;;;10.03;78.41;99707.09;5141686;27;20329;-66
2023/12/25 07:55:51;;;;;;;30.95;19.35;;;;;;;10.15;78.67;99705.81;5134621;27;20297;-65
2023/12/25 07:58:17;;;;;;;25.50;15.10;;;;;;;10.31;78.15;99708.56;5142032;27;20416;-64
2023/12/25 08:00:42;;;;;;;23.30;14.00;;;;;;;10.57;77.83;99711.13;5139163;27;20106;-64
2023/12/25 08:03:12;;;;;;;20.60;13.32;;;;;;;10.73;77.39;99719.09;5141200;27;20042;-66
2023/12/25 08:05:38;;;;;;;20.83;12.40;;;;;;;10.78;78.43;99721.25;5139253;27;20054;-66
2023/12/25 08:08:07;;;;;;;30.63;17.48;;;;;;;10.90;77.57;99714.66;5135365;27;20366;-64
2023/12/25 08:10:33;;;;;;;27.67;15.45;;;;;;;11.07;78.01;99723.41;5141790;27;20038;-66
2023/12/25 08:12:59;;;;;;;19.55;13.27;;;;;;;11.20;78.56;99724.56;5137197;27;20035;-66
2023/12/25 08:15:27;;;;;;;17.15;11.32;;;;;;;11.31;78.90;99726.06;5142321;27;20031;-64
2023/12/25 08:17:52;;;;;;;20.98;13.40;;;;;;;11.52;78.41;99738.81;5140374;27;20136;-66
2023/12/25 08:20:18;;;;;;;18.27;12.43;;;;;;;11.69;77.60;99743.09;5141457;27;20042;-66
2023/12/25 08:22:43;;;;;;;32.22;17.23;;;;;;;11.84;77.64;99724.69;5134209;27;20039;-65
2023/12/25 08:25:09;;;;;;;27.90;13.52;;;;;;;11.99;76.19;99724.81;5141530;27;20035;-64
2023/12/25 08:27:35;;;;;;;15.55;9.57;;;;;;;12.07;74.82;99725.59;5140302;27;20043;-65
2023/12/25 08:30:01;;;;;;;15.20;9.65;;;;;;;12.19;73.06;99727.88;5140925;27;20362;-64
2023/12/25 08:32:26;;;;;;;19.42;9.85;;;;;;;12.28;72.72;99714.41;5141022;27;20038;-66
2023/12/25 08:34:52;;;;;;;14.07;8.60;;;;;;;12.37;71.67;99704.56;5141409;27;20336;-66
2023/12/25 08:37:18;;;;;;;8.88;5.65;;;;;;;12.52;69.26;99705.50;5138271;27;20047;-65
2023/12/25 08:39:44;;;;;;;11.32;4.95;;;;;;;12.60;67.99;99697.47;5139287;27;20037;-66
2023/12/25 08:42:09;;;;;;;6.75;3.50;;;;;;;12.75;66.15;99697.53;5138046;27;20058;-66
2023/12/25 08:44:34;;;;;;;8.77;3.10;;;;;;;12.87;65.30;99693.47;5134419;27;20046;-66
2023/12/25 08:47:00;;;;;;;6.72;3.63;;;;;;;12.98;65.32;99692.22;5141001;27;20046;-66
2023/12/25 08:49:25;;;;;;;5.65;3.13;;;;;;;13.08;63.76;99696.28;5140101;27;20043;-64
2023/12/25 08:51:51;;;;;;;3.92;3.10;;;;;;;13.10;62.07;99685.47;5141734;27;20078;-66
2023/12/25 08:54:17;;;;;;;7.68;3.28;;;;;;;13.27;59.95;99694.16;5130448;27;20065;-66
2023/12/25 08:56:43;;;;;;;5.68;2.63;;;;;;;13.36;59.19;99685.91;5140991;27;20019;-65
2023/12/25 08:59:09;;;;;;;4.88;2.28;;;;;;;13.51;58.76;99685.09;5135204;27;20027;-65
2023/12/25 09:01:35;;;;;;;3.85;2.50;;;;;;;13.60;58.82;99681.38;5141018;27;20236;-64
2023/12/25 09:04:01;;;;;;;5.10;2.20;;;;;;;13.66;56.79;99672.66;5138327;27;20114;-66
2023/12/25 09:06:26;;;;;;;3.47;2.00;;;;;;;13.75;56.46;99671.56;5140382;27;20034;-64
2023/12/25 09:08:52;;;;;;;4.43;1.70;;;;;;;13.86;55.87;99675.59;5133029;27;20359;-66
2023/12/25 09:11:18;;;;;;;5.35;1.98;;;;;;;13.96;55.57;99665.47;5140339;27;20039;-66
2023/12/25 09:13:44;;;;;;;6.07;2.70;;;;;;;14.02;55.67;99665.56;5138046;27;20035;-65
2023/12/25 09:16:10;;;;;;;4.00;2.13;;;;;;;14.09;55.59;99649.66;5140259;27;20043;-64
2023/12/25 09:18:35;;;;;;;3.42;1.98;;;;;;;14.17;54.87;99646.91;5138281;27;20035;-66
2023/12/25 09:21:01;;;;;;;4.82;2.00;;;;;;;14.24;54.67;99649.63;5134813;27;20042;-66
2023/12/25 09:23:26;;;;;;;6.97;2.30;;;;;;;14.31;53.66;99629.22;5140627;27;20105;-64
2023/12/25 09:25:52;;;;;;;4.45;2.13;;;;;;;14.42;51.92;99633.22;5130547;27;20279;-66
2023/12/25 09:28:18;;;;;;;3.03;2.03;;;;;;;14.51;51.42;99624.97;5127735;27;20335;-64
2023/12/25 09:30:44;;;;;;;4.35;2.08;;;;;;;14.62;50.75;99624.47;5139796;27;20327;-66
2023/12/25 09:33:10;;;;;;;5.53;2.22;;;;;;;14.66;50.33;99617.75;5139464;27;20138;-65
2023/12/25 09:35:35;;;;;;;5.15;1.88;;;;;;;14.80;50.27;99612.53;5138940;27;20027;-64
2023/12/25 09:38:00;;;;;;;3.80;2.20;;;;;;;14.87;49.86;99608.91;5134401;27;20032;-66
2023/12/25 09:40:26;;;;;;;5.20;2.22;;;;;;;14.96;49.75;99606.91;5138567;27;20043;-66
2023/12/25 09:42:52;;;;;;;9.43;4.25;;;;;;;15.06;50.92;99599.41;5138447;27;20240;-66
2023/12/25 09:45:17;;;;;;;8.80;4.82;;;;;;;15.13;51.22;99594.94;5139631;27;20639;-64
2023/12/25 09:47:45;;;;;;;8.23;2.55;;;;;;;15.22;50.40;99599.09;5139271;27;20046;-66
2023/12/25 09:50:11;;;;;;;8.77;3.95;;;;;;;15.27;50.61;99595.84;5139368;27;20519;-66
2023/12/25 09:52:37;;;;;;;7.00;2.80;;;;;;;15.32;48.60;99594.25;5139215;27;20076;-66
2023/12/25 09:55:02;;;;;;;4.28;2.70;;;;;;;15.40;49.01;99595.94;5132129;27;20039;-65
2023/12/25 09:57:29;;;;;;;4.70;2.03;;;;;;;15.38;49.09;99589.97;5139816;27;20074;-67
2023/12/25 09:59:56;;;;;;;3.75;2.00;;;;;;;15.43;48.94;99581.38;5134864;27;20224;-66
2023/12/25 10:02:23;;;;;;;5.32;2.10;;;;;;;15.46;49.43;99579.13;5133032;27;20055;-66
2023/12/25 10:04:52;;;;;;;7.15;2.75;;;;;;;15.49;48.82;99583.25;5132969;27;20039;-66
2023/12/25 10:07:21;;;;;;;6.82;3.10;;;;;;;15.53;48.33;99582.66;5125945;27;20042;-66
2023/12/25 10:09:53;;;;;;;4.28;2.65;;;;;;;15.61;46.80;99582.56;5139906;27;20031;-65
2023/12/25 10:12:19;;;;;;;3.55;2.08;;;;;;;15.66;46.23;99581.13;5133692;27;20507;-64
2023/12/25 10:14:45;;;;;;;4.47;1.90;;;;;;;15.68;46.15;99582.59;5139291;27;20114;-66
2023/12/25 10:17:11;;;;;;;4.72;2.17;;;;;;;15.75;45.59;99580.75;5137904;27;20245;-66
2023/12/25 10:19:57;;;;;;;4.15;1.98;;;;;;;15.83;44.77;99577.09;5139596;27;20042;-66
2023/12/25 10:22:33;;;;;;;3.05;1.50;;;;;;;15.93;42.92;99578.38;5127405;27;20059;-66
2023/12/25 10:25:06;;;;;;;5.45;2.35;;;;;;;16.02;43.38;99575.50;5128214;27;20403;-64
2023/12/25 10:27:39;;;;;;;3.30;2.10;;;;;;;16.02;43.77;99579.00;5138573;27;20054;-66
2023/12/25 10:30:27;;;;;;;2.78;1.38;;;;;;;16.09;42.29;99566.50;5138522;27;20460;-66
2023/12/25 10:33:13;;;;;;;6.28;2.25;;;;;;;16.08;43.10;99569.38;5135069;27;20046;-66
2023/12/25 10:35:39;;;;;;;3.00;1.70;;;;;;;16.09;43.58;99569.16;5139249;27;20031;-65
2023/12/25 10:38:05;;;;;;;3.83;1.83;;;;;;;16.16;43.42;99570.00;5138592;27;20153;-66
2023/12/25 10:40:31;;;;;;;3.72;1.90;;;;;;;16.19;43.28;99558.91;5139275;27;20037;-66
2023/12/25 10:42:57;;;;;;;6.45;1.90;;;;;;;16.18;43.28;99564.44;5129080;27;20114;-66
2023/12/25 10:45:28;;;;;;;5.25;2.10;;;;;;;16.12;44.17;99554.59;5138140;27;20352;-66
2023/12/25 10:47:55;;;;;;;4.35;1.80;;;;;;;16.11;44.49;99556.44;5139238;27;20099;-65
2023/12/25 10:50:27;;;;;;;3.20;1.80;;;;;;;16.07;44.55;99551.69;5139543;27;20221;-65
2023/12/25 10:53:00;;;;;;;5.90;2.20;;;;;;;16.13;44.16;99559.72;5138481;27;20043;-65
2023/12/25 10:55:33;;;;;;;3.30;1.90;;;;;;;16.16;43.95;99551.31;5139118;27;20402;-67
2023/12/25 10:58:00;;;;;;;3.03;1.60;;;;;;;16.15;44.44;99548.84;5139022;27;20033;-67
2023/12/25 11:00:28;;;;;;;3.42;1.73;;;;;;;16.13;43.08;99545.53;5120417;27;20388;-66
2023/12/25 11:02:57;;;;;;;2.50;1.60;;;;;;;16.12;42.12;99542.03;5137637;27;20267;-66
2023/12/25 11:05:24;;;;;;;2.95;1.80;;;;;;;16.12;42.26;99538.56;5131476;27;20038;-64
2023/12/25 11:07:51;;;;;;;2.72;1.85;;;;;;;16.12;43.88;99527.88;5138678;28;20132;-66
2023/12/25 11:10:17;;;;;;;4.80;2.28;;;;;;;16.09;43.98;99528.28;5139487;27;20109;-65
2023/12/25 11:12:44;;;;;;;3.67;1.67;;;;;;;16.09;43.99;99529.09;5138320;28;20039;-67
2023/12/25 11:15:11;;;;;;;4.85;1.95;;;;;;;16.08;43.58;99527.44;5138727;27;20035;-64
2023/12/25 11:17:39;;;;;;;4.07;1.83;;;;;;;16.07;43.07;99533.00;5138703;28;20263;-66
2023/12/25 11:20:09;;;;;;;2.42;1.70;;;;;;;16.10;42.93;99535.25;5138616;27;20099;-66
2023/12/25 11:22:36;;;;;;;4.13;1.80;;;;;;;16.12;43.28;99538.56;5132691;28;20292;-66